createdAt,value
2018-02-22T00:02:01.768Z,94889
2018-02-22T00:04:30.041Z,94880
2018-02-22T00:06:58.326Z,94882
2018-02-22T00:09:26.631Z,94885
2018-02-22T00:11:55.689Z,94884
2018-02-22T00:14:24.003Z,94882
2018-02-22T00:16:53.057Z,94876
2018-02-22T00:19:21.368Z,94874
2018-02-22T00:21:49.660Z,94872
2018-02-22T00:24:18.709Z,94869
2018-02-22T00:26:47.045Z,94863
2018-02-22T00:29:15.321Z,94858
2018-02-22T00:31:43.611Z,94860
2018-02-22T00:34:11.904Z,94862
2018-02-22T00:36:40.191Z,94857
2018-02-22T00:39:08.518Z,94859
2018-02-22T00:41:36.810Z,94850
2018-02-22T00:44:05.124Z,94851
2018-02-22T00:46:33.409Z,94846
2018-02-22T00:49:01.749Z,94850
2018-02-22T00:51:30.082Z,94843
2018-02-22T00:53:59.135Z,94839
2018-02-22T00:56:27.421Z,94839
2018-02-22T00:58:55.704Z,94835
2018-02-22T01:01:23.987Z,94832
2018-02-22T01:03:52.310Z,94834
2018-02-22T01:06:20.600Z,94836
2018-02-22T01:08:48.869Z,94829
2018-02-22T01:11:17.164Z,94829
2018-02-22T01:13:45.441Z,94826
2018-02-22T01:16:13.748Z,94833
2018-02-22T01:18:42.040Z,94827
2018-02-22T01:21:11.100Z,94830
2018-02-22T01:23:39.380Z,94825
2018-02-22T01:26:07.682Z,94825
2018-02-22T01:28:36.003Z,94819
2018-02-22T01:31:04.272Z,94814
2018-02-22T01:33:32.581Z,94819
2018-02-22T01:36:00.860Z,94815
2018-02-22T01:38:29.161Z,94815
2018-02-22T01:40:57.581Z,94812
2018-02-22T01:43:25.891Z,94802
2018-02-22T01:45:54.180Z,94804
2018-02-22T01:48:22.461Z,94801
2018-02-22T01:50:50.747Z,94795
2018-02-22T01:53:19.089Z,94795
2018-02-22T01:55:47.368Z,94797
2018-02-22T01:58:15.680Z,94790
2018-02-22T02:00:43.996Z,94784
2018-02-22T02:03:12.264Z,94782
2018-02-22T02:05:40.580Z,94779
2018-02-22T02:08:08.880Z,94783
2018-02-22T02:10:37.160Z,94775
2018-02-22T02:13:05.444Z,94770
2018-02-22T02:15:34.500Z,94766
2018-02-22T02:18:02.829Z,94765
2018-02-22T02:20:31.265Z,94761
2018-02-22T02:22:59.582Z,94766
2018-02-22T02:25:27.900Z,94761
2018-02-22T02:28:01.868Z,94765
2018-02-22T02:30:30.182Z,94759
2018-02-22T02:32:58.570Z,94758
2018-02-22T02:35:26.920Z,94754
2018-02-22T02:37:55.248Z,94750
2018-02-22T02:40:23.576Z,94749
2018-02-22T02:42:51.914Z,94751
2018-02-22T02:45:21.077Z,94749
2018-02-22T02:47:49.462Z,94745
2018-02-22T02:50:17.799Z,94750
2018-02-22T02:52:46.158Z,94742
2018-02-22T02:55:15.279Z,94748
2018-02-22T02:57:43.684Z,94746
2018-02-22T03:00:12.012Z,94748
2018-02-22T03:02:41.175Z,94746
2018-02-22T03:05:09.502Z,94740
2018-02-22T03:07:37.846Z,94735
2018-02-22T03:10:07.001Z,94738
2018-02-22T03:12:35.349Z,94735
2018-02-22T03:15:03.694Z,94731
2018-02-22T03:17:32.044Z,94723
2018-02-22T03:20:00.382Z,94719
2018-02-22T03:22:28.782Z,94712
2018-02-22T03:24:57.110Z,94715
2018-02-22T03:27:26.214Z,94719
2018-02-22T03:29:55.325Z,94709
2018-02-22T03:32:23.657Z,94709
2018-02-22T03:34:52.034Z,94707
2018-02-22T03:37:20.362Z,94701
2018-02-22T03:39:48.730Z,94704
2018-02-22T03:42:17.057Z,94700
2018-02-22T03:44:45.386Z,94698
2018-02-22T03:47:13.786Z,94697
2018-02-22T03:49:42.130Z,94699
2018-02-22T03:52:11.222Z,94691
2018-02-22T03:54:40.327Z,94689
2018-02-22T03:57:09.442Z,94688
2018-02-22T03:59:39.390Z,94694
2018-02-22T04:02:07.803Z,94679
2018-02-22T04:04:36.897Z,94681
2018-02-22T04:07:06.005Z,94681
2018-02-22T04:09:35.127Z,94689
2018-02-22T04:12:03.590Z,94679
2018-02-22T04:14:32.002Z,94680
2018-02-22T04:17:00.358Z,94676
2018-02-22T04:19:28.875Z,94676
2018-02-22T04:21:57.268Z,94682
2018-02-22T04:24:25.693Z,94687
2018-02-22T04:26:54.061Z,94685
2018-02-22T04:29:23.211Z,94683
2018-02-22T04:31:51.588Z,94679
2018-02-22T04:34:19.974Z,94683
2018-02-22T04:36:49.210Z,94684
2018-02-22T04:39:17.610Z,94682
2018-02-22T04:41:45.961Z,94682
2018-02-22T04:44:16.101Z,94683
2018-02-22T04:46:44.473Z,94681
2018-02-22T04:49:12.882Z,94680
2018-02-22T04:51:41.251Z,94679
2018-02-22T04:54:09.640Z,94674
2018-02-22T04:56:38.009Z,94678
2018-02-22T04:59:06.378Z,94675
2018-02-22T05:01:34.810Z,94670
2018-02-22T05:04:03.190Z,94672
2018-02-22T05:06:31.575Z,94673
2018-02-22T05:08:59.952Z,94677
2018-02-22T05:11:28.341Z,94670
2018-02-22T05:13:57.530Z,94676
2018-02-22T05:16:26.677Z,94667
2018-02-22T05:18:55.050Z,94671
2018-02-22T05:21:23.406Z,94668
2018-02-22T05:23:51.770Z,94663
2018-02-22T05:26:20.930Z,94663
2018-02-22T05:28:49.318Z,94659
2018-02-22T05:31:17.721Z,94659
2018-02-22T05:33:46.847Z,94659
2018-02-22T05:36:15.238Z,94655
2018-02-22T05:38:43.649Z,94655
2018-02-22T05:41:12.081Z,94655
2018-02-22T05:43:40.443Z,94654
2018-02-22T05:46:08.807Z,94652
2018-02-22T05:48:37.951Z,94655
2018-02-22T05:51:06.382Z,94654
2018-02-22T05:53:35.520Z,94653
2018-02-22T05:56:03.913Z,94648
2018-02-22T05:58:32.336Z,94649
2018-02-22T06:01:01.471Z,94650
2018-02-22T06:03:29.938Z,94654
2018-02-22T06:05:58.283Z,94658
2018-02-22T06:08:26.693Z,94658
2018-02-22T06:10:55.068Z,94663
2018-02-22T06:13:23.472Z,94663
2018-02-22T06:15:51.987Z,94660
2018-02-22T06:18:20.335Z,94665
2018-02-22T06:20:49.849Z,94670
2018-02-22T06:23:18.338Z,94671
2018-02-22T06:25:46.903Z,94675
2018-02-22T06:28:15.473Z,94674
2018-02-22T06:30:43.988Z,94680
2018-02-22T06:33:12.502Z,94683
2018-02-22T06:35:41.807Z,94684
2018-02-22T06:38:11.021Z,94681
2018-02-22T06:40:39.571Z,94679
2018-02-22T06:43:08.196Z,94678
2018-02-22T06:45:36.761Z,94683
2018-02-22T06:48:05.502Z,94683
2018-02-22T06:50:34.066Z,94691
2018-02-22T06:53:04.792Z,94692
2018-02-22T06:55:33.271Z,94689
2018-02-22T06:58:01.856Z,94696
2018-02-22T07:00:30.336Z,94697
2018-02-22T07:02:58.878Z,94695
2018-02-22T07:05:28.241Z,94704
2018-02-22T07:07:56.593Z,94701
2018-02-22T07:10:26.646Z,94700
2018-02-22T07:12:56.705Z,94700
2018-02-22T07:15:25.113Z,94700
2018-02-22T07:17:53.518Z,94707
2018-02-22T07:20:22.010Z,94695
2018-02-22T07:22:50.351Z,94703
2018-02-22T07:25:18.730Z,94696
2018-02-22T07:27:47.252Z,94700
2018-02-22T07:30:15.733Z,94697
2018-02-22T07:32:44.211Z,94706
2018-02-22T07:35:12.590Z,94703
2018-02-22T07:37:40.970Z,94704
2018-02-22T07:40:09.419Z,94706
2018-02-22T07:42:37.831Z,94711
2018-02-22T07:45:06.231Z,94711
2018-02-22T07:47:35.382Z,94713
2018-02-22T07:50:04.539Z,94713
2018-02-22T07:52:32.964Z,94717
2018-02-22T07:55:01.411Z,94713
2018-02-22T07:57:29.764Z,94712
2018-02-22T07:59:58.909Z,94719
2018-02-22T08:02:27.353Z,94719
2018-02-22T08:04:55.780Z,94716
2018-02-22T08:07:24.267Z,94708
2018-02-22T08:09:53.125Z,94715
2018-02-22T08:12:21.696Z,94706
2018-02-22T08:14:50.136Z,94711
2018-02-22T08:17:19.283Z,94716
2018-02-22T08:19:47.746Z,94712
2018-02-22T08:22:16.155Z,94710
2018-02-22T08:24:45.143Z,94712
2018-02-22T08:27:13.535Z,94708
2018-02-22T08:29:41.934Z,94706
2018-02-22T08:32:10.385Z,94709
2018-02-22T08:34:38.773Z,94707
2018-02-22T08:37:07.153Z,94711
2018-02-22T08:39:35.505Z,94708
2018-02-22T08:42:03.893Z,94711
2018-02-22T08:44:32.357Z,94717
2018-02-22T08:47:00.763Z,94701
2018-02-22T08:49:29.136Z,94708
2018-02-22T08:51:57.575Z,94698
2018-02-22T08:54:26.025Z,94710
2018-02-22T08:56:55.233Z,94705
2018-02-22T08:59:24.371Z,94701
2018-02-22T09:01:52.824Z,94707
2018-02-22T09:04:21.275Z,94704
2018-02-22T09:06:49.664Z,94701
2018-02-22T09:09:18.853Z,94703
2018-02-22T09:11:47.239Z,94697
2018-02-22T09:14:16.390Z,94698
2018-02-22T09:16:44.765Z,94689
2018-02-22T09:19:13.138Z,94697
2018-02-22T09:21:41.610Z,94697
2018-02-22T09:24:09.978Z,94699
2018-02-22T09:26:38.363Z,94700
2018-02-22T09:29:06.781Z,94700
2018-02-22T09:31:35.170Z,94695
2018-02-22T09:34:03.642Z,94699
2018-02-22T09:36:32.082Z,94696
2018-02-22T09:39:00.497Z,94702
2018-02-22T09:41:28.903Z,94700
2018-02-22T09:43:58.090Z,94690
2018-02-22T09:46:26.639Z,94698
2018-02-22T09:48:55.769Z,94695
2018-02-22T09:51:24.138Z,94696
2018-02-22T09:53:52.551Z,94693
2018-02-22T09:56:21.709Z,94700
2018-02-22T09:58:50.148Z,94701
2018-02-22T10:01:18.566Z,94702
2018-02-22T10:03:47.048Z,94700
2018-02-22T10:06:15.482Z,94694
2018-02-22T10:08:43.916Z,94698
2018-02-22T10:11:12.361Z,94699
2018-02-22T10:13:40.730Z,94696
2018-02-22T10:16:09.203Z,94692
2018-02-22T10:18:37.584Z,94691
2018-02-22T10:21:05.994Z,94693
2018-02-22T10:23:34.384Z,94694
2018-02-22T10:26:02.812Z,94696
2018-02-22T10:28:31.358Z,94702
2018-02-22T10:30:59.818Z,94706
2018-02-22T10:33:28.284Z,94700
2018-02-22T10:35:56.673Z,94703
2018-02-22T10:38:25.090Z,94701
2018-02-22T10:40:54.311Z,94709
2018-02-22T10:43:22.693Z,94708
2018-02-22T10:45:51.115Z,94713
2018-02-22T10:48:19.494Z,94697
2018-02-22T10:50:47.910Z,94701
2018-02-22T10:53:17.161Z,94699
2018-02-22T10:55:45.543Z,94698
2018-02-22T10:58:13.924Z,94703
2018-02-22T11:03:45.913Z,94703
2018-02-22T11:06:14.304Z,94700
2018-02-22T11:08:43.694Z,94698
2018-02-22T11:11:12.150Z,94686
2018-02-22T11:13:40.514Z,94692
2018-02-22T11:16:08.916Z,94692
2018-02-22T11:18:37.333Z,94692
2018-02-22T11:21:06.517Z,94696
2018-02-22T11:23:34.943Z,94690
2018-02-22T11:26:03.327Z,94689
2018-02-22T11:28:31.705Z,94693
2018-02-22T11:31:00.076Z,94690
2018-02-22T11:33:28.511Z,94690
2018-02-22T11:35:56.982Z,94685
2018-02-22T11:38:25.376Z,94692
2018-02-22T11:40:53.871Z,94681
2018-02-22T11:43:23.084Z,94690
2018-02-22T11:45:51.516Z,94690
2018-02-22T11:48:19.919Z,94692
2018-02-22T11:50:48.365Z,94682
2018-02-22T11:53:16.760Z,94675
2018-02-22T11:55:45.231Z,94676
2018-02-22T11:58:13.662Z,94671
2018-02-22T12:00:42.822Z,94663
2018-02-22T12:03:11.812Z,94667
2018-02-22T12:05:40.272Z,94663
2018-02-22T12:08:08.711Z,94658
2018-02-22T12:10:37.123Z,94662
2018-02-22T12:13:05.953Z,94653
2018-02-22T12:15:35.061Z,94648
2018-02-22T12:18:04.233Z,94647
2018-02-22T12:20:32.826Z,94648
2018-02-22T12:23:01.390Z,94653
2018-02-22T12:25:30.921Z,94644
2018-02-22T12:28:00.379Z,94647
2018-02-22T12:30:28.948Z,94649
2018-02-22T12:32:57.728Z,94644
2018-02-22T12:35:26.792Z,94651
2018-02-22T12:37:55.433Z,94654
2018-02-22T12:40:23.873Z,94636
2018-02-22T12:42:53.788Z,94649
2018-02-22T12:45:22.226Z,94641
2018-02-22T12:47:50.647Z,94642
2018-02-22T12:50:19.831Z,94643
2018-02-22T12:52:49.195Z,94641
2018-02-22T12:55:19.800Z,94643
2018-02-22T12:57:48.982Z,94646
2018-02-22T13:00:17.396Z,94644
2018-02-22T13:02:48.060Z,94635
2018-02-22T13:05:17.289Z,94646
2018-02-22T13:07:45.746Z,94644
2018-02-22T13:10:14.501Z,94647
2018-02-22T13:12:42.917Z,94649
2018-02-22T13:15:11.309Z,94641
2018-02-22T13:17:39.846Z,94634
2018-02-22T13:20:08.341Z,94645
2018-02-22T13:22:37.515Z,94648
2018-02-22T13:25:05.876Z,94641
2018-02-22T13:27:34.254Z,94643
2018-02-22T13:30:02.645Z,94646
2018-02-22T13:32:48.702Z,94642
2018-02-22T13:35:17.080Z,94650
2018-02-22T13:38:15.790Z,94637
2018-02-22T13:40:44.259Z,94642
2018-02-22T13:43:12.695Z,94630
2018-02-22T13:45:41.095Z,94637
2018-02-22T13:48:09.462Z,94633
2018-02-22T13:50:56.191Z,94635
2018-02-22T13:53:24.597Z,94636
2018-02-22T13:55:53.076Z,94635
2018-02-22T13:58:21.463Z,94632
2018-02-22T14:01:07.528Z,94630
2018-02-22T14:03:35.873Z,94630
2018-02-22T14:06:05.042Z,94628
2018-02-22T14:08:43.410Z,94634
2018-02-22T14:11:11.814Z,94625
2018-02-22T14:13:40.246Z,94626
2018-02-22T14:16:08.633Z,94629
2018-02-22T14:18:37.853Z,94628
2018-02-22T14:21:06.358Z,94632
2018-02-22T14:23:36.525Z,94633
2018-02-22T14:26:05.007Z,94633
2018-02-22T14:28:35.050Z,94637
2018-02-22T14:31:04.356Z,94632
2018-02-22T14:33:32.709Z,94634
2018-02-22T14:36:01.989Z,94629
2018-02-22T14:38:31.141Z,94630
2018-02-22T14:41:00.342Z,94634
2018-02-22T14:43:28.727Z,94635
2018-02-22T14:45:57.143Z,94641
2018-02-22T14:48:25.573Z,94642
2018-02-22T14:50:54.006Z,94640
2018-02-22T14:53:23.168Z,94639
2018-02-22T14:55:51.528Z,94643
2018-02-22T14:58:19.889Z,94635
2018-02-22T15:00:53.886Z,94639
2018-02-22T15:03:22.319Z,94642
2018-02-22T15:05:50.696Z,94639
2018-02-22T15:08:19.132Z,94635
2018-02-22T15:10:47.597Z,94635
2018-02-22T15:13:15.980Z,94638
2018-02-22T15:15:44.505Z,94645
2018-02-22T15:18:12.870Z,94642
2018-02-22T15:20:41.294Z,94645
2018-02-22T15:23:10.502Z,94653
2018-02-22T15:25:39.708Z,94649
2018-02-22T15:28:08.936Z,94645
2018-02-22T15:30:37.341Z,94648
2018-02-22T15:33:05.715Z,94648
2018-02-22T15:35:34.089Z,94654
2018-02-22T15:38:02.489Z,94655
2018-02-22T15:40:30.914Z,94660
2018-02-22T15:42:59.310Z,94617
2018-02-22T15:45:27.687Z,94660
2018-02-22T15:47:59.184Z,94665
2018-02-22T15:50:27.788Z,94667
2018-02-22T15:52:56.254Z,94666
2018-02-22T15:55:25.735Z,94666
2018-02-22T15:57:54.992Z,94661
2018-02-22T16:00:23.426Z,94674
2018-02-22T16:02:51.855Z,94671
2018-02-22T16:05:20.282Z,94673
2018-02-22T16:07:48.635Z,94667
2018-02-22T16:10:17.096Z,94675
2018-02-22T16:12:45.512Z,94671
2018-02-22T16:15:13.933Z,94670
2018-02-22T16:17:42.383Z,94672
2018-02-22T16:20:10.762Z,94673
2018-02-22T16:22:39.225Z,94679
2018-02-22T16:25:07.589Z,94680
2018-02-22T16:27:36.060Z,94687
2018-02-22T16:30:04.497Z,94686
2018-02-22T16:32:33.645Z,94685
2018-02-22T16:35:02.126Z,94684
2018-02-22T16:37:41.445Z,94694
2018-02-22T16:40:10.531Z,94698
2018-02-22T16:42:38.814Z,94693
2018-02-22T16:45:07.834Z,94693
2018-02-22T16:47:36.157Z,94703
2018-02-22T16:50:04.577Z,94704
2018-02-22T16:52:33.665Z,94706
2018-02-22T16:55:02.799Z,94710
2018-02-22T17:56:32.265Z,94736
2018-02-22T17:59:00.604Z,94730
2018-02-22T18:01:29.689Z,94735
2018-02-22T18:03:58.084Z,94731
2018-02-22T18:06:26.407Z,94738
2018-02-22T18:08:54.734Z,94727
2018-02-22T18:11:23.016Z,94724
2018-02-22T18:13:52.099Z,94728
2018-02-22T18:16:20.432Z,94729
2018-02-22T18:18:49.655Z,94725
2018-02-22T18:21:17.953Z,94731
2018-02-22T18:23:46.249Z,94730
2018-02-22T18:26:15.324Z,94730
2018-02-22T18:28:43.698Z,94738
2018-02-22T18:31:12.071Z,94739
2018-02-22T18:33:41.176Z,94740
2018-02-22T18:36:09.554Z,94739
2018-02-22T18:38:43.313Z,94744
2018-02-22T18:41:11.634Z,94749
2018-02-22T18:43:41.857Z,94750
2018-02-22T18:46:10.274Z,94745
2018-02-22T18:48:38.592Z,94745
2018-02-22T18:51:06.865Z,94746
2018-02-22T18:53:35.147Z,94743
2018-02-22T18:56:03.445Z,94748
2018-02-22T18:58:31.741Z,94753
2018-02-22T19:01:00.015Z,94754
2018-02-22T19:03:29.058Z,94747
2018-02-22T19:05:57.327Z,94758
2018-02-22T19:08:25.739Z,94767
2018-02-22T19:10:54.220Z,94761
2018-02-22T19:13:22.685Z,94768
2018-02-22T19:15:51.067Z,94768
2018-02-22T19:18:19.480Z,94769
2018-02-22T19:20:48.545Z,94779
2018-02-22T19:23:16.902Z,94777
2018-02-22T19:25:45.248Z,94773
2018-02-22T19:28:13.553Z,94780
2018-02-22T19:30:41.966Z,94785
2018-02-22T19:33:10.344Z,94780
2018-02-22T19:35:38.732Z,94780
2018-02-22T19:38:07.862Z,94779
2018-02-22T19:40:36.173Z,94777
2018-02-22T19:43:04.493Z,94778
2018-02-22T19:45:33.666Z,94772
2018-02-22T19:48:02.137Z,94774
2018-02-22T19:50:30.465Z,94770
2018-02-22T19:52:58.805Z,94766
2018-02-22T19:55:27.106Z,94769
2018-02-22T19:57:56.209Z,94767
2018-02-22T20:00:24.556Z,94769
2018-02-22T20:02:52.870Z,94768
2018-02-22T20:05:21.212Z,94764
2018-02-22T20:07:49.477Z,94771
2018-02-22T20:10:17.815Z,94765
2018-02-22T20:12:46.216Z,94762
2018-02-22T20:15:14.596Z,94764
2018-02-22T20:17:42.917Z,94766
2018-02-22T20:20:12.080Z,94765
2018-02-22T20:22:40.499Z,94766
2018-02-22T20:25:09.630Z,94760
2018-02-22T20:27:38.149Z,94763
2018-02-22T20:30:06.453Z,94764
2018-02-22T20:32:34.788Z,94767
2018-02-22T20:35:03.178Z,94765
2018-02-22T20:37:31.544Z,94768
2018-02-22T20:39:59.911Z,94768
2018-02-22T20:42:28.299Z,94777
2018-02-22T20:44:56.663Z,94778
2018-02-22T20:47:25.038Z,94778
2018-02-22T20:49:53.944Z,94762
2018-02-22T20:55:34.331Z,94780
2018-02-22T21:36:11.082Z,94788
2018-02-22T21:38:39.594Z,94788
2018-02-22T21:41:08.045Z,94790
2018-02-22T21:43:36.482Z,94782
2018-02-22T21:46:04.878Z,94786
2018-02-22T21:48:34.057Z,94785
2018-02-22T21:51:02.569Z,94790
2018-02-22T21:53:31.798Z,94786
2018-02-22T21:56:00.165Z,94787
2018-02-22T21:58:28.607Z,94784
2018-02-22T22:00:57.049Z,94779
2018-02-22T22:03:25.429Z,94781
2018-02-22T22:05:53.838Z,94785
2018-02-22T22:08:22.249Z,94786
2018-02-22T22:10:50.671Z,94781
2018-02-22T22:13:19.080Z,94778
2018-02-22T22:15:47.493Z,94784
2018-02-22T22:18:15.870Z,94779
2018-02-22T22:20:44.258Z,94772
2018-02-22T22:23:12.658Z,94772
2018-02-22T22:25:41.054Z,94774
2018-02-22T22:28:09.411Z,94771
2018-02-22T22:30:37.815Z,94773
2018-02-22T22:33:06.234Z,94767
2018-02-22T22:35:34.616Z,94764
2018-02-22T22:38:03.082Z,94762
2018-02-22T22:40:32.207Z,94766
2018-02-22T22:43:02.449Z,94773
2018-02-22T22:45:30.821Z,94769
2018-02-22T22:47:59.144Z,94765
2018-02-22T22:50:27.609Z,94775
2018-02-22T22:52:55.989Z,94775
2018-02-22T22:55:25.039Z,94775
2018-02-22T22:57:53.452Z,94784
2018-02-22T23:00:22.849Z,94779
2018-02-22T23:02:51.233Z,94784
2018-02-22T23:05:19.640Z,94787
2018-02-22T23:07:48.833Z,94790
2018-02-22T23:10:17.292Z,94784
2018-02-22T23:12:45.681Z,94786
2018-02-22T23:15:14.049Z,94783
2018-02-22T23:17:42.578Z,94787
2018-02-22T23:20:10.974Z,94792
2018-02-22T23:22:39.358Z,94788
2018-02-22T23:25:08.406Z,94786
2018-02-22T23:27:37.538Z,94785
2018-02-22T23:30:05.904Z,94782
2018-02-22T23:32:34.283Z,94783
2018-02-22T23:35:02.716Z,94782
2018-02-22T23:37:31.157Z,94780
2018-02-22T23:39:59.529Z,94781
2018-02-22T23:42:39.773Z,94778
2018-02-22T23:45:08.159Z,94779
2018-02-22T23:47:36.552Z,94775
2018-02-22T23:50:04.971Z,94769
2018-02-22T23:52:33.386Z,94769
2018-02-22T23:55:01.773Z,94769
2018-02-22T23:57:30.189Z,94767
2018-02-22T23:59:58.563Z,94766
